sensor_id;sensor_type;location;lat;lon;timestamp;pressure;altitude;pressure_sealevel;temperature;humidity
5522;BME280;2783;48.730;8.006;2022-08-19T00:00:25;99687.63;;;22.20;100.00
5522;BME280;2783;48.730;8.006;2022-08-19T00:02:51;99691.44;;;22.17;100.00
5522;BME280;2783;48.730;8.006;2022-08-19T00:05:18;99686.75;;;22.19;100.00
5522;BME280;2783;48.730;8.006;2022-08-19T00:07:44;99682.19;;;22.20;100.00
5522;BME280;2783;48.730;8.006;2022-08-19T00:10:12;99687.00;;;22.16;100.00
5522;BME280;2783;48.730;8.006;2022-08-19T00:12:39;99671.91;;;22.14;100.00
5522;BME280;2783;48.730;8.006;2022-08-19T00:15:09;99688.84;;;22.16;100.00
5522;BME280;2783;48.730;8.006;2022-08-19T00:17:43;99674.47;;;22.15;100.00
5522;BME280;2783;48.730;8.006;2022-08-19T00:20:18;99673.00;;;22.11;100.00
5522;BME280;2783;48.730;8.006;2022-08-19T00:22:44;99654.69;;;22.04;100.00
5522;BME280;2783;48.730;8.006;2022-08-19T00:25:11;99674.00;;;22.10;100.00
5522;BME280;2783;48.730;8.006;2022-08-19T00:27:37;99677.59;;;22.00;100.00
5522;BME280;2783;48.730;8.006;2022-08-19T00:30:05;99679.72;;;21.96;100.00
5522;BME280;2783;48.730;8.006;2022-08-19T00:32:31;99665.09;;;21.88;100.00
5522;BME280;2783;48.730;8.006;2022-08-19T00:34:56;99679.38;;;21.90;100.00
5522;BME280;2783;48.730;8.006;2022-08-19T00:37:23;99683.56;;;21.94;100.00
5522;BME280;2783;48.730;8.006;2022-08-19T00:39:51;99676.59;;;22.01;100.00
5522;BME280;2783;48.730;8.006;2022-08-19T00:42:18;99663.31;;;21.98;100.00
5522;BME280;2783;48.730;8.006;2022-08-19T00:44:43;99662.34;;;21.99;100.00
5522;BME280;2783;48.730;8.006;2022-08-19T00:47:09;99650.06;;;21.95;100.00
5522;BME280;2783;48.730;8.006;2022-08-19T00:49:41;99647.47;;;21.93;100.00
5522;BME280;2783;48.730;8.006;2022-08-19T00:52:11;99652.91;;;21.93;100.00
5522;BME280;2783;48.730;8.006;2022-08-19T00:54:39;99644.28;;;21.88;100.00
5522;BME280;2783;48.730;8.006;2022-08-19T00:57:08;99649.63;;;21.79;100.00
5522;BME280;2783;48.730;8.006;2022-08-19T00:59:36;99668.94;;;21.74;100.00
5522;BME280;2783;48.730;8.006;2022-08-19T01:02:04;99671.78;;;21.73;100.00
5522;BME280;2783;48.730;8.006;2022-08-19T01:04:29;99681.63;;;21.74;100.00
5522;BME280;2783;48.730;8.006;2022-08-19T01:06:55;99673.66;;;21.61;100.00
5522;BME280;2783;48.730;8.006;2022-08-19T01:09:21;99685.47;;;21.60;100.00
5522;BME280;2783;48.730;8.006;2022-08-19T01:11:47;99690.41;;;21.55;100.00
5522;BME280;2783;48.730;8.006;2022-08-19T01:14:13;99692.72;;;21.60;100.00
5522;BME280;2783;48.730;8.006;2022-08-19T01:16:40;99684.72;;;21.58;100.00
5522;BME280;2783;48.730;8.006;2022-08-19T01:19:20;99683.16;;;21.56;100.00
5522;BME280;2783;48.730;8.006;2022-08-19T01:21:58;99674.41;;;21.52;100.00
5522;BME280;2783;48.730;8.006;2022-08-19T01:24:26;99679.97;;;21.51;100.00
5522;BME280;2783;48.730;8.006;2022-08-19T01:26:51;99679.22;;;21.49;100.00
5522;BME280;2783;48.730;8.006;2022-08-19T01:29:17;99689.78;;;21.52;100.00
5522;BME280;2783;48.730;8.006;2022-08-19T01:31:43;99689.66;;;21.53;100.00
5522;BME280;2783;48.730;8.006;2022-08-19T01:34:08;99684.63;;;21.49;100.00
5522;BME280;2783;48.730;8.006;2022-08-19T01:36:40;99693.50;;;21.51;100.00
5522;BME280;2783;48.730;8.006;2022-08-19T01:39:10;99685.50;;;21.49;100.00
5522;BME280;2783;48.730;8.006;2022-08-19T01:41:36;99693.38;;;21.52;100.00
5522;BME280;2783;48.730;8.006;2022-08-19T01:44:02;99691.53;;;21.53;100.00
5522;BME280;2783;48.730;8.006;2022-08-19T01:46:29;99680.97;;;21.50;100.00
5522;BME280;2783;48.730;8.006;2022-08-19T01:48:55;99682.53;;;21.52;100.00
5522;BME280;2783;48.730;8.006;2022-08-19T01:51:20;99681.53;;;21.53;100.00
5522;BME280;2783;48.730;8.006;2022-08-19T01:53:50;99679.19;;;21.60;100.00
5522;BME280;2783;48.730;8.006;2022-08-19T01:56:17;99681.53;;;21.64;100.00
5522;BME280;2783;48.730;8.006;2022-08-19T01:58:51;99681.41;;;21.66;100.00
5522;BME280;2783;48.730;8.006;2022-08-19T02:01:19;99682.38;;;21.65;100.00
5522;BME280;2783;48.730;8.006;2022-08-19T02:03:44;99678.56;;;21.67;100.00
5522;BME280;2783;48.730;8.006;2022-08-19T02:06:11;99677.56;;;21.68;100.00
5522;BME280;2783;48.730;8.006;2022-08-19T02:08:39;99681.88;;;21.71;100.00
5522;BME280;2783;48.730;8.006;2022-08-19T02:11:05;99678.81;;;21.64;100.00
5522;BME280;2783;48.730;8.006;2022-08-19T02:13:32;99679.66;;;21.65;100.00
5522;BME280;2783;48.730;8.006;2022-08-19T02:15:58;99683.84;;;21.69;100.00
5522;BME280;2783;48.730;8.006;2022-08-19T02:18:24;99668.13;;;21.63;100.00
5522;BME280;2783;48.730;8.006;2022-08-19T02:20:49;99680.28;;;21.68;100.00
5522;BME280;2783;48.730;8.006;2022-08-19T02:23:16;99676.00;;;21.66;100.00
5522;BME280;2783;48.730;8.006;2022-08-19T02:25:46;99656.69;;;21.59;100.00
5522;BME280;2783;48.730;8.006;2022-08-19T02:28:13;99658.53;;;21.59;100.00
5522;BME280;2783;48.730;8.006;2022-08-19T02:30:40;99667.66;;;21.58;100.00
5522;BME280;2783;48.730;8.006;2022-08-19T02:33:06;99674.50;;;21.62;100.00
5522;BME280;2783;48.730;8.006;2022-08-19T02:35:32;99666.16;;;21.54;100.00
5522;BME280;2783;48.730;8.006;2022-08-19T02:37:57;99670.34;;;21.58;100.00
5522;BME280;2783;48.730;8.006;2022-08-19T02:40:48;99668.34;;;21.60;100.00
5522;BME280;2783;48.730;8.006;2022-08-19T02:43:15;99662.22;;;21.58;100.00
5522;BME280;2783;48.730;8.006;2022-08-19T02:45:41;99659.88;;;21.53;100.00
5522;BME280;2783;48.730;8.006;2022-08-19T02:48:06;99665.06;;;21.56;100.00
5522;BME280;2783;48.730;8.006;2022-08-19T02:50:37;99669.88;;;21.53;100.00
5522;BME280;2783;48.730;8.006;2022-08-19T02:53:03;99658.56;;;21.48;100.00
5522;BME280;2783;48.730;8.006;2022-08-19T02:55:29;99669.00;;;21.52;100.00
5522;BME280;2783;48.730;8.006;2022-08-19T02:57:54;99664.81;;;21.48;100.00
5522;BME280;2783;48.730;8.006;2022-08-19T03:00:19;99660.28;;;21.49;100.00
5522;BME280;2783;48.730;8.006;2022-08-19T03:02:45;99685.34;;;21.62;100.00
5522;BME280;2783;48.730;8.006;2022-08-19T03:05:11;99680.66;;;21.64;100.00
5522;BME280;2783;48.730;8.006;2022-08-19T03:07:37;99677.97;;;21.64;100.00
5522;BME280;2783;48.730;8.006;2022-08-19T03:10:04;99679.53;;;21.66;100.00
5522;BME280;2783;48.730;8.006;2022-08-19T03:12:29;99681.41;;;21.66;100.00
5522;BME280;2783;48.730;8.006;2022-08-19T03:14:55;99679.66;;;21.65;100.00
5522;BME280;2783;48.730;8.006;2022-08-19T03:17:20;99682.63;;;21.62;100.00
5522;BME280;2783;48.730;8.006;2022-08-19T03:19:45;99688.03;;;21.62;100.00
5522;BME280;2783;48.730;8.006;2022-08-19T03:22:11;99687.56;;;21.57;100.00
5522;BME280;2783;48.730;8.006;2022-08-19T03:24:37;99686.94;;;21.53;100.00
5522;BME280;2783;48.730;8.006;2022-08-19T03:27:03;99682.53;;;21.52;100.00
5522;BME280;2783;48.730;8.006;2022-08-19T03:29:31;99687.81;;;21.54;100.00
5522;BME280;2783;48.730;8.006;2022-08-19T03:31:59;99697.19;;;21.50;100.00
5522;BME280;2783;48.730;8.006;2022-08-19T03:34:28;99695.19;;;21.52;100.00
5522;BME280;2783;48.730;8.006;2022-08-19T03:36:59;99700.34;;;21.55;100.00
5522;BME280;2783;48.730;8.006;2022-08-19T03:39:26;99699.78;;;21.51;100.00
5522;BME280;2783;48.730;8.006;2022-08-19T03:41:53;99689.09;;;21.50;100.00
5522;BME280;2783;48.730;8.006;2022-08-19T03:44:22;99701.50;;;21.52;100.00
5522;BME280;2783;48.730;8.006;2022-08-19T03:46:58;99706.91;;;21.52;100.00
5522;BME280;2783;48.730;8.006;2022-08-19T03:49:27;99705.78;;;21.55;100.00
5522;BME280;2783;48.730;8.006;2022-08-19T03:51:54;99705.53;;;21.58;100.00
5522;BME280;2783;48.730;8.006;2022-08-19T03:54:22;99709.97;;;21.59;100.00
5522;BME280;2783;48.730;8.006;2022-08-19T03:56:50;99710.97;;;21.58;100.00
5522;BME280;2783;48.730;8.006;2022-08-19T03:59:25;99703.81;;;21.57;100.00
5522;BME280;2783;48.730;8.006;2022-08-19T04:01:55;99710.84;;;21.59;100.00
5522;BME280;2783;48.730;8.006;2022-08-19T04:04:21;99712.94;;;21.56;100.00
5522;BME280;2783;48.730;8.006;2022-08-19T04:06:47;99712.19;;;21.54;100.00
5522;BME280;2783;48.730;8.006;2022-08-19T04:09:13;99708.88;;;21.50;100.00
5522;BME280;2783;48.730;8.006;2022-08-19T04:11:41;99718.09;;;21.59;100.00
5522;BME280;2783;48.730;8.006;2022-08-19T04:14:08;99716.38;;;21.58;100.00
5522;BME280;2783;48.730;8.006;2022-08-19T04:16:34;99719.09;;;21.58;100.00
5522;BME280;2783;48.730;8.006;2022-08-19T04:19:02;99713.78;;;21.56;100.00
5522;BME280;2783;48.730;8.006;2022-08-19T04:21:28;99700.00;;;21.48;100.00
5522;BME280;2783;48.730;8.006;2022-08-19T04:23:55;99704.56;;;21.48;100.00
5522;BME280;2783;48.730;8.006;2022-08-19T04:26:24;99686.00;;;21.43;100.00
5522;BME280;2783;48.730;8.006;2022-08-19T04:28:50;99699.91;;;21.50;100.00
5522;BME280;2783;48.730;8.006;2022-08-19T04:31:25;99702.34;;;21.53;100.00
5522;BME280;2783;48.730;8.006;2022-08-19T04:33:56;99707.63;;;21.54;100.00
5522;BME280;2783;48.730;8.006;2022-08-19T04:36:25;99710.59;;;21.51;100.00
5522;BME280;2783;48.730;8.006;2022-08-19T04:38:55;99710.00;;;21.48;100.00
5522;BME280;2783;48.730;8.006;2022-08-19T04:41:21;99711.22;;;21.44;100.00
5522;BME280;2783;48.730;8.006;2022-08-19T04:44:05;99713.44;;;21.50;100.00
5522;BME280;2783;48.730;8.006;2022-08-19T04:46:30;99705.66;;;21.45;100.00
5522;BME280;2783;48.730;8.006;2022-08-19T04:48:57;99719.56;;;21.52;100.00
5522;BME280;2783;48.730;8.006;2022-08-19T04:51:23;99714.88;;;21.54;100.00
5522;BME280;2783;48.730;8.006;2022-08-19T04:53:49;99724.84;;;21.53;100.00
5522;BME280;2783;48.730;8.006;2022-08-19T04:56:17;99725.47;;;21.57;100.00
5522;BME280;2783;48.730;8.006;2022-08-19T04:58:44;99737.41;;;21.54;100.00
5522;BME280;2783;48.730;8.006;2022-08-19T05:01:18;99737.78;;;21.61;100.00
5522;BME280;2783;48.730;8.006;2022-08-19T05:03:43;99740.59;;;21.59;100.00
5522;BME280;2783;48.730;8.006;2022-08-19T05:06:12;99733.72;;;21.55;100.00
5522;BME280;2783;48.730;8.006;2022-08-19T05:08:39;99752.63;;;21.66;100.00
5522;BME280;2783;48.730;8.006;2022-08-19T05:13:43;99754.84;;;21.72;100.00
5522;BME280;2783;48.730;8.006;2022-08-19T05:16:11;99754.50;;;21.77;100.00
5522;BME280;2783;48.730;8.006;2022-08-19T05:18:37;99759.03;;;21.76;100.00
5522;BME280;2783;48.730;8.006;2022-08-19T05:21:22;99767.53;;;21.83;100.00
5522;BME280;2783;48.730;8.006;2022-08-19T05:24:07;99764.34;;;21.78;100.00
5522;BME280;2783;48.730;8.006;2022-08-19T05:26:36;99773.69;;;21.85;100.00
5522;BME280;2783;48.730;8.006;2022-08-19T05:29:02;99786.00;;;21.89;100.00
5522;BME280;2783;48.730;8.006;2022-08-19T05:31:29;99775.41;;;21.86;100.00
5522;BME280;2783;48.730;8.006;2022-08-19T05:33:54;99779.31;;;21.93;100.00
5522;BME280;2783;48.730;8.006;2022-08-19T05:36:21;99794.34;;;21.97;100.00
5522;BME280;2783;48.730;8.006;2022-08-19T05:38:46;99790.63;;;21.98;100.00
5522;BME280;2783;48.730;8.006;2022-08-19T05:41:13;99787.56;;;22.02;100.00
5522;BME280;2783;48.730;8.006;2022-08-19T05:43:39;99790.84;;;22.06;100.00
5522;BME280;2783;48.730;8.006;2022-08-19T05:46:06;99792.59;;;22.07;100.00
5522;BME280;2783;48.730;8.006;2022-08-19T05:48:34;99789.28;;;22.03;100.00
5522;BME280;2783;48.730;8.006;2022-08-19T05:51:06;99789.38;;;22.13;100.00
5522;BME280;2783;48.730;8.006;2022-08-19T05:53:33;99786.66;;;22.13;100.00
5522;BME280;2783;48.730;8.006;2022-08-19T05:56:13;99789.38;;;22.13;100.00
5522;BME280;2783;48.730;8.006;2022-08-19T05:58:43;99785.91;;;22.11;100.00
5522;BME280;2783;48.730;8.006;2022-08-19T06:01:12;99793.81;;;22.14;100.00
5522;BME280;2783;48.730;8.006;2022-08-19T06:03:38;99793.69;;;22.15;100.00
5522;BME280;2783;48.730;8.006;2022-08-19T06:06:06;99788.41;;;22.14;100.00
5522;BME280;2783;48.730;8.006;2022-08-19T06:08:35;99789.38;;;22.13;100.00
5522;BME280;2783;48.730;8.006;2022-08-19T06:11:23;99790.63;;;22.09;100.00
5522;BME280;2783;48.730;8.006;2022-08-19T06:13:51;99795.53;;;22.15;100.00
5522;BME280;2783;48.730;8.006;2022-08-19T06:16:21;99781.97;;;22.15;100.00
5522;BME280;2783;48.730;8.006;2022-08-19T06:18:51;99792.63;;;22.28;100.00
5522;BME280;2783;48.730;8.006;2022-08-19T06:21:24;99792.97;;;22.34;100.00
5522;BME280;2783;48.730;8.006;2022-08-19T06:23:51;99798.03;;;22.39;100.00
5522;BME280;2783;48.730;8.006;2022-08-19T06:26:18;99807.41;;;22.35;100.00
5522;BME280;2783;48.730;8.006;2022-08-19T06:28:44;99805.03;;;22.41;100.00
5522;BME280;2783;48.730;8.006;2022-08-19T06:31:25;99822.50;;;22.48;100.00
5522;BME280;2783;48.730;8.006;2022-08-19T06:33:50;99807.88;;;22.40;100.00
5522;BME280;2783;48.730;8.006;2022-08-19T06:38:46;99828.19;;;22.56;100.00
5522;BME280;2783;48.730;8.006;2022-08-19T06:41:12;99838.75;;;22.59;100.00
5522;BME280;2783;48.730;8.006;2022-08-19T06:43:37;99836.03;;;22.59;100.00
5522;BME280;2783;48.730;8.006;2022-08-19T06:46:03;99822.75;;;22.56;100.00
5522;BME280;2783;48.730;8.006;2022-08-19T06:48:30;99835.50;;;22.65;95.42
5522;BME280;2783;48.730;8.006;2022-08-19T06:50:55;99834.00;;;22.72;93.22
5522;BME280;2783;48.730;8.006;2022-08-19T06:53:21;99830.78;;;22.78;92.74
5522;BME280;2783;48.730;8.006;2022-08-19T06:55:47;99835.59;;;22.95;92.87
5522;BME280;2783;48.730;8.006;2022-08-19T06:58:12;99822.50;;;23.00;91.27
5522;BME280;2783;48.730;8.006;2022-08-19T07:00:37;99833.03;;;23.14;90.56
5522;BME280;2783;48.730;8.006;2022-08-19T07:03:03;99823.84;;;23.26;89.87
5522;BME280;2783;48.730;8.006;2022-08-19T07:05:28;99837.91;;;23.41;89.04
5522;BME280;2783;48.730;8.006;2022-08-19T07:07:54;99817.53;;;23.47;89.09
5522;BME280;2783;48.730;8.006;2022-08-19T07:10:19;99823.84;;;23.57;89.11
5522;BME280;2783;48.730;8.006;2022-08-19T07:12:45;99826.91;;;23.73;88.49
5522;BME280;2783;48.730;8.006;2022-08-19T07:15:12;99836.69;;;23.85;87.59
5522;BME280;2783;48.730;8.006;2022-08-19T07:17:38;99819.94;;;23.80;87.36
5522;BME280;2783;48.730;8.006;2022-08-19T07:20:06;99833.69;;;23.88;86.76
5522;BME280;2783;48.730;8.006;2022-08-19T07:22:33;99824.22;;;23.82;86.87
5522;BME280;2783;48.730;8.006;2022-08-19T07:24:59;99833.13;;;23.94;87.05
5522;BME280;2783;48.730;8.006;2022-08-19T07:27:25;99826.00;;;23.93;86.93
5522;BME280;2783;48.730;8.006;2022-08-19T07:29:53;99829.19;;;23.98;87.18
5522;BME280;2783;48.730;8.006;2022-08-19T07:32:18;99813.28;;;23.93;85.74
5522;BME280;2783;48.730;8.006;2022-08-19T07:34:44;99820.13;;;23.97;85.02
5522;BME280;2783;48.730;8.006;2022-08-19T07:37:11;99830.94;;;24.08;85.10
5522;BME280;2783;48.730;8.006;2022-08-19T07:39:37;99829.09;;;24.18;83.80
5522;BME280;2783;48.730;8.006;2022-08-19T07:42:07;99811.50;;;24.22;83.34
5522;BME280;2783;48.730;8.006;2022-08-19T07:44:33;99828.09;;;24.38;82.35
5522;BME280;2783;48.730;8.006;2022-08-19T07:46:59;99825.00;;;24.43;82.15
5522;BME280;2783;48.730;8.006;2022-08-19T07:49:25;99826.13;;;24.50;82.10
5522;BME280;2783;48.730;8.006;2022-08-19T07:51:57;99831.16;;;24.54;81.56
5522;BME280;2783;48.730;8.006;2022-08-19T07:54:25;99831.25;;;24.53;81.16
5522;BME280;2783;48.730;8.006;2022-08-19T07:56:52;99830.00;;;24.57;81.44
5522;BME280;2783;48.730;8.006;2022-08-19T07:59:19;99819.56;;;24.52;81.53
5522;BME280;2783;48.730;8.006;2022-08-19T08:01:45;99838.75;;;24.70;80.84
5522;BME280;2783;48.730;8.006;2022-08-19T08:04:12;99831.31;;;24.82;79.20
5522;BME280;2783;48.730;8.006;2022-08-19T08:06:56;99835.88;;;25.10;77.90
5522;BME280;2783;48.730;8.006;2022-08-19T08:09:42;99822.19;;;25.29;75.47
5522;BME280;2783;48.730;8.006;2022-08-19T08:12:14;99821.56;;;25.54;75.23
5522;BME280;2783;48.730;8.006;2022-08-19T08:14:47;99831.66;;;25.80;73.02
5522;BME280;2783;48.730;8.006;2022-08-19T08:17:15;99831.25;;;25.75;73.11
5522;BME280;2783;48.730;8.006;2022-08-19T08:19:42;99835.09;;;25.82;73.18
5522;BME280;2783;48.730;8.006;2022-08-19T08:22:08;99832.06;;;25.85;73.43
5522;BME280;2783;48.730;8.006;2022-08-19T08:24:54;99815.81;;;25.93;73.18
5522;BME280;2783;48.730;8.006;2022-08-19T08:27:23;99814.81;;;25.94;72.82
5522;BME280;2783;48.730;8.006;2022-08-19T08:29:49;99821.47;;;26.10;71.27
5522;BME280;2783;48.730;8.006;2022-08-19T08:32:14;99827.97;;;26.26;71.42
5522;BME280;2783;48.730;8.006;2022-08-19T08:34:40;99825.56;;;26.23;71.40
5522;BME280;2783;48.730;8.006;2022-08-19T08:37:05;99826.13;;;26.27;71.61
5522;BME280;2783;48.730;8.006;2022-08-19T08:39:31;99836.63;;;26.39;71.29
5522;BME280;2783;48.730;8.006;2022-08-19T08:42:06;99838.06;;;26.61;70.51
5522;BME280;2783;48.730;8.006;2022-08-19T08:44:59;99844.56;;;26.77;70.22
5522;BME280;2783;48.730;8.006;2022-08-19T08:47:28;99841.47;;;26.90;68.93
5522;BME280;2783;48.730;8.006;2022-08-19T08:50:13;99849.97;;;26.87;68.63
5522;BME280;2783;48.730;8.006;2022-08-19T08:52:44;99852.59;;;26.79;68.84
5522;BME280;2783;48.730;8.006;2022-08-19T08:55:18;99854.16;;;26.81;68.92
5522;BME280;2783;48.730;8.006;2022-08-19T09:00:19;99847.81;;;27.16;68.15
5522;BME280;2783;48.730;8.006;2022-08-19T09:02:46;99837.03;;;27.14;67.18
5522;BME280;2783;48.730;8.006;2022-08-19T09:05:13;99840.22;;;27.10;66.35
5522;BME280;2783;48.730;8.006;2022-08-19T09:08:01;99843.13;;;27.26;67.72
5522;BME280;2783;48.730;8.006;2022-08-19T09:10:49;99852.13;;;27.27;67.60
5522;BME280;2783;48.730;8.006;2022-08-19T09:15:54;99854.66;;;27.38;65.83
5522;BME280;2783;48.730;8.006;2022-08-19T09:18:22;99858.22;;;27.38;64.08
5522;BME280;2783;48.730;8.006;2022-08-19T09:20:47;99861.09;;;27.54;65.35
5522;BME280;2783;48.730;8.006;2022-08-19T09:23:13;99855.44;;;27.81;64.73
5522;BME280;2783;48.730;8.006;2022-08-19T09:25:39;99860.53;;;28.02;64.06
5522;BME280;2783;48.730;8.006;2022-08-19T09:28:05;99866.13;;;27.92;61.77
5522;BME280;2783;48.730;8.006;2022-08-19T09:30:34;99856.22;;;27.99;63.17
5522;BME280;2783;48.730;8.006;2022-08-19T09:33:04;99842.16;;;28.20;62.92
5522;BME280;2783;48.730;8.006;2022-08-19T09:35:30;99852.03;;;28.55;60.62
5522;BME280;2783;48.730;8.006;2022-08-19T09:37:57;99858.91;;;28.91;58.82
5522;BME280;2783;48.730;8.006;2022-08-19T09:40:23;99859.97;;;29.30;57.67
5522;BME280;2783;48.730;8.006;2022-08-19T09:42:48;99854.06;;;29.81;55.36
5522;BME280;2783;48.730;8.006;2022-08-19T09:45:15;99854.88;;;30.36;53.99
5522;BME280;2783;48.730;8.006;2022-08-19T09:47:42;99861.34;;;31.05;53.63
5522;BME280;2783;48.730;8.006;2022-08-19T09:50:10;99860.66;;;31.77;50.84
5522;BME280;2783;48.730;8.006;2022-08-19T09:52:37;99845.09;;;32.28;48.67
5522;BME280;2783;48.730;8.006;2022-08-19T09:55:07;99865.31;;;32.99;46.93
5522;BME280;2783;48.730;8.006;2022-08-19T09:57:33;99868.97;;;33.49;44.30
5522;BME280;2783;48.730;8.006;2022-08-19T09:59:59;99870.25;;;33.53;43.25
5522;BME280;2783;48.730;8.006;2022-08-19T10:02:24;99861.75;;;33.48;43.01
5522;BME280;2783;48.730;8.006;2022-08-19T10:04:50;99865.53;;;33.47;42.73
5522;BME280;2783;48.730;8.006;2022-08-19T10:07:34;99864.25;;;33.43;41.55
5522;BME280;2783;48.730;8.006;2022-08-19T10:10:00;99871.25;;;33.24;43.16
5522;BME280;2783;48.730;8.006;2022-08-19T10:12:26;99871.47;;;33.22;43.37
5522;BME280;2783;48.730;8.006;2022-08-19T10:14:51;99875.53;;;33.48;43.56
5522;BME280;2783;48.730;8.006;2022-08-19T10:17:18;99875.66;;;33.61;44.55
5522;BME280;2783;48.730;8.006;2022-08-19T10:19:44;99873.06;;;33.38;41.71
5522;BME280;2783;48.730;8.006;2022-08-19T10:22:09;99862.53;;;33.42;42.99
5522;BME280;2783;48.730;8.006;2022-08-19T10:24:39;99864.78;;;33.87;43.64
5522;BME280;2783;48.730;8.006;2022-08-19T10:27:06;99868.47;;;34.34;43.15
5522;BME280;2783;48.730;8.006;2022-08-19T10:29:32;99865.88;;;34.67;42.77
5522;BME280;2783;48.730;8.006;2022-08-19T10:32:04;99870.84;;;34.91;42.11
5522;BME280;2783;48.730;8.006;2022-08-19T10:34:35;99870.69;;;34.52;41.06
5522;BME280;2783;48.730;8.006;2022-08-19T10:37:02;99868.44;;;34.28;41.96
5522;BME280;2783;48.730;8.006;2022-08-19T10:39:33;99866.03;;;34.12;42.31
5522;BME280;2783;48.730;8.006;2022-08-19T10:41:59;99862.22;;;33.58;42.90
5522;BME280;2783;48.730;8.006;2022-08-19T10:44:25;99864.31;;;33.07;44.03
5522;BME280;2783;48.730;8.006;2022-08-19T10:46:50;99838.00;;;32.33;46.57
5522;BME280;2783;48.730;8.006;2022-08-19T10:49:17;99848.47;;;31.94;45.51
5522;BME280;2783;48.730;8.006;2022-08-19T10:51:44;99834.69;;;31.79;47.07
5522;BME280;2783;48.730;8.006;2022-08-19T10:54:28;99854.69;;;31.59;47.57
5522;BME280;2783;48.730;8.006;2022-08-19T10:57:17;99851.13;;;31.36;48.52
5522;BME280;2783;48.730;8.006;2022-08-19T10:59:42;99845.34;;;31.08;47.36
5522;BME280;2783;48.730;8.006;2022-08-19T11:02:10;99846.25;;;30.78;48.79
5522;BME280;2783;48.730;8.006;2022-08-19T11:04:38;99842.47;;;30.48;50.94
5522;BME280;2783;48.730;8.006;2022-08-19T11:07:04;99851.50;;;30.18;51.29
5522;BME280;2783;48.730;8.006;2022-08-19T11:09:31;99833.22;;;30.11;51.69
5522;BME280;2783;48.730;8.006;2022-08-19T11:12:01;99833.22;;;30.11;51.73
5522;BME280;2783;48.730;8.006;2022-08-19T11:14:27;99823.09;;;30.11;51.72
5522;BME280;2783;48.730;8.006;2022-08-19T11:16:54;99826.16;;;30.16;52.24
5522;BME280;2783;48.730;8.006;2022-08-19T11:19:22;99827.66;;;29.88;51.73
5522;BME280;2783;48.730;8.006;2022-08-19T11:21:50;99826.28;;;29.84;53.36
5522;BME280;2783;48.730;8.006;2022-08-19T11:24:20;99821.88;;;29.75;54.08
5522;BME280;2783;48.730;8.006;2022-08-19T11:26:46;99817.41;;;29.74;53.10
5522;BME280;2783;48.730;8.006;2022-08-19T11:29:15;99814.31;;;29.77;53.63
5522;BME280;2783;48.730;8.006;2022-08-19T11:31:44;99821.53;;;29.78;52.85
5522;BME280;2783;48.730;8.006;2022-08-19T11:34:12;99815.03;;;29.71;54.09
5522;BME280;2783;48.730;8.006;2022-08-19T11:36:41;99811.88;;;29.82;53.69
5522;BME280;2783;48.730;8.006;2022-08-19T11:39:09;99819.75;;;29.93;51.88
5522;BME280;2783;48.730;8.006;2022-08-19T11:41:35;99802.44;;;29.93;52.27
5522;BME280;2783;48.730;8.006;2022-08-19T11:44:02;99812.25;;;30.18;52.00
5522;BME280;2783;48.730;8.006;2022-08-19T11:46:28;99815.63;;;30.36;49.60
5522;BME280;2783;48.730;8.006;2022-08-19T11:48:58;99812.47;;;30.69;49.55
5522;BME280;2783;48.730;8.006;2022-08-19T11:51:26;99800.28;;;30.95;49.87
5522;BME280;2783;48.730;8.006;2022-08-19T11:53:54;99798.59;;;30.94;48.16
5522;BME280;2783;48.730;8.006;2022-08-19T11:56:21;99792.28;;;31.45;47.69
5522;BME280;2783;48.730;8.006;2022-08-19T11:58:47;99791.59;;;32.16;46.61
5522;BME280;2783;48.730;8.006;2022-08-19T12:01:15;99789.28;;;32.90;44.31
5522;BME280;2783;48.730;8.006;2022-08-19T12:03:41;99789.56;;;32.95;42.24
5522;BME280;2783;48.730;8.006;2022-08-19T12:06:12;99787.84;;;32.94;42.48
5522;BME280;2783;48.730;8.006;2022-08-19T12:08:39;99805.19;;;33.09;42.68
5522;BME280;2783;48.730;8.006;2022-08-19T12:11:05;99802.88;;;33.41;41.38
5522;BME280;2783;48.730;8.006;2022-08-19T12:13:33;99796.28;;;33.97;39.91
5522;BME280;2783;48.730;8.006;2022-08-19T12:16:00;99794.41;;;34.51;39.38
5522;BME280;2783;48.730;8.006;2022-08-19T12:18:26;99785.56;;;35.08;38.95
5522;BME280;2783;48.730;8.006;2022-08-19T12:20:53;99792.63;;;35.17;37.14
5522;BME280;2783;48.730;8.006;2022-08-19T12:23:20;99791.13;;;35.53;37.38
5522;BME280;2783;48.730;8.006;2022-08-19T12:25:47;99790.13;;;36.12;35.79
5522;BME280;2783;48.730;8.006;2022-08-19T12:28:21;99791.31;;;36.42;36.10
5522;BME280;2783;48.730;8.006;2022-08-19T12:30:48;99794.00;;;36.55;34.99
5522;BME280;2783;48.730;8.006;2022-08-19T12:33:14;99799.56;;;35.98;34.09
5522;BME280;2783;48.730;8.006;2022-08-19T12:35:44;99788.16;;;35.22;36.29
5522;BME280;2783;48.730;8.006;2022-08-19T12:38:14;99798.94;;;34.18;36.80
5522;BME280;2783;48.730;8.006;2022-08-19T12:40:40;99795.53;;;33.82;38.66
5522;BME280;2783;48.730;8.006;2022-08-19T12:43:07;99792.75;;;33.75;37.36
5522;BME280;2783;48.730;8.006;2022-08-19T12:45:32;99796.88;;;33.58;37.63
5522;BME280;2783;48.730;8.006;2022-08-19T12:47:58;99786.28;;;33.96;37.56
5522;BME280;2783;48.730;8.006;2022-08-19T12:50:24;99784.41;;;34.03;36.98
5522;BME280;2783;48.730;8.006;2022-08-19T12:52:50;99781.72;;;33.41;38.02
5522;BME280;2783;48.730;8.006;2022-08-19T12:55:15;99776.91;;;33.01;39.16
5522;BME280;2783;48.730;8.006;2022-08-19T12:57:43;99777.44;;;32.75;39.94
5522;BME280;2783;48.730;8.006;2022-08-19T13:00:15;99780.88;;;32.77;39.19
5522;BME280;2783;48.730;8.006;2022-08-19T13:02:43;99767.81;;;32.44;39.70
5522;BME280;2783;48.730;8.006;2022-08-19T13:05:12;99775.91;;;32.45;40.63
5522;BME280;2783;48.730;8.006;2022-08-19T13:07:39;99771.34;;;32.23;40.79
5522;BME280;2783;48.730;8.006;2022-08-19T13:10:07;99773.81;;;32.68;40.15
5522;BME280;2783;48.730;8.006;2022-08-19T13:12:33;99766.84;;;33.42;38.72
5522;BME280;2783;48.730;8.006;2022-08-19T13:14:59;99769.31;;;33.65;39.50
5522;BME280;2783;48.730;8.006;2022-08-19T13:17:24;99773.72;;;33.31;38.72
5522;BME280;2783;48.730;8.006;2022-08-19T13:19:50;99776.84;;;32.94;38.68
5522;BME280;2783;48.730;8.006;2022-08-19T13:22:16;99786.66;;;32.61;40.48
5522;BME280;2783;48.730;8.006;2022-08-19T13:24:42;99778.38;;;32.82;39.99
5522;BME280;2783;48.730;8.006;2022-08-19T13:27:07;99770.38;;;33.08;39.27
5522;BME280;2783;48.730;8.006;2022-08-19T13:29:33;99765.03;;;33.56;39.48
5522;BME280;2783;48.730;8.006;2022-08-19T13:32:17;99769.66;;;34.30;37.81